Aktualne dane pomiarowe

Uwaga, wersja testowa! Automatyczne pobieranie danych za pomocą narzędzi lub skryptów to umożliwiających jest zabronione.

Dane meteo z obszaru Polski uzyskane na podstawie depesz SYNOP pobieranych co godzinę z NWS. Najedź myszką na symbol przedstawiony w tabeli, aby uzyskać informacje co do jego znaczenia. Prosimy pamiętać, że to testowa wersja strony, która jeszcze nie jest ukończona. Stworzono również jest krótki FAQ dotyczący korzystania z tej podstrony Anomalie temperatury w chwili obecnej odniesione są do okresu referencyjnego 1951-2016. Okres ten będzie później zmieniony na 1981-2010. Kliknij ikonę aby pobrać plik CSV. Kliknij ikonę aby wygenerować mapę synoptyczną dla danego terminu.

Wybierz Datę:    

        

Krosno (12670)

Dane terminowe dla wybranej stacji. Kliknij datę, aby otrzymać dane z tego terminu dla wszystkich stacji.

TemperaturaZachmurzenieWiatrCiśnienieOpadyPogoda
 Data t td wb tx tn tg rh  Nt Nl Cl Cm Ch ws wd g1 g2 wx mslp ppp ch 24h 12h t ww ww w1 w2  
2019-06-19 23:00:00 19.6 16.2 17.2--- 8130.0wx-wx3wx---1012.2 973.8 -0.5---------
2019-06-19 22:00:00 20.3 17.6 18.4--- 8526.0wxwxwxwx3wx---1012.4 974.1 -0.2---------
2019-06-19 21:00:00 19.5 18.1 18.5--- 9212.0wxwxwxwx3wx--31012.9 974.5 0.2---wx---
2019-06-19 20:00:00 20.7 18.6 19.2--- 8822.0wxwxwxwx3wx--31012.5 974.3 0.0---wx---
2019-06-19 19:00:00 20.7 18.7 19.3--- 8817.0wx-wxwx2wx--21012.5 974.3 0.1---------
2019-06-19 18:00:00 21.0 18.8 19.4 26.3 17.5- 8717.0wxwxwxwxwx2wx--21012.5 974.3 0.2- 19.012wx-w1w2--
2019-06-19 17:00:00 21.9 18.4 19.4--- 8130.0wxwxwxwxwx2wx--21012.4 974.3 -0.9---------
2019-06-19 16:00:00 22.2 17.9 19.2--- 7735.0wxwxwxwxwx3wx--31012.2 974.2 -1.2---------
2019-06-19 15:00:00 20.7 17.6 18.5--- 8240.0wxwxwxwxwx3wx---1012.3 974.1 -2.0---wx-w1w2--
2019-06-19 14:00:00 19.7 17.4 18.1--- 8735.0wxwxwx2wx--21013.6 975.2 -0.8---wx-w1--
2019-06-19 13:00:00 19.1 17.7 18.1--- 9218.0wxwxwxwx4wx--41013.9 975.4 -0.5---wx-w1w2--
2019-06-19 12:00:00 17.8 16.1 16.6--- 902.8wxwxwx4wx--41014.8 976.1 -0.2- 13.06wx-w1--
2019-06-19 11:00:00 23.6 17.9 19.7--- 7017.0wxwxwxwx3wx--31013.9 976.0 -0.7---wx-w1--
2019-06-19 10:00:00 25.5 17.5 20.1--- 6128.0wxwxwxwxwx3wx--31013.6 975.9 -0.7---wx-w1w2--
2019-06-19 09:00:00 25.7 17.7 20.3--- 6126.0wxwxwxwxwx3wx--31014.0 976.3 -0.6---wx---
2019-06-19 08:00:00 23.5 17.8 19.6--- 7021.0wxwxwxwx2wx---1014.7 976.7 -0.2---------
2019-06-19 07:00:00 22.7 17.9 19.4--- 7418.0wxwxwxwx2wx--21014.7 976.6 -0.2---------
2019-06-19 06:00:00 21.8 17.9 19.1 22.0 17.2 17 7912.0wxwxwxwxwx2wx--21015.1 976.9 0.2- 0.012----- 4.0
2019-06-19 05:00:00 18.9 17.0 17.5--- 899.0wx-wxwx3wx--31015.5 976.9 -0.1---wx---
2019-06-19 04:00:00 17.8 16.9 17.1--- 945.0wx-wxwx3wx--31015.5 976.8 -0.4---wx---
2019-06-19 03:00:00 17.3 16.6 16.8--- 964.2wx-wxwx3wx--31015.5 976.7 -0.8---wx---
2019-06-19 02:00:00 17.8 16.8 17.1--- 945.0wx-wxwx3wx--31015.7 977.0 -0.8---wx---
2019-06-19 01:00:00 18.3 16.9 17.3--- 928.0wx-wx2wx--21015.9 977.2 -0.7---wx---
2019-06-19 00:00:00 18.8 16.7 17.3--- 8810.0wx-wxwx3wx--31016.1 977.5 -0.6- 0.06------
2019-06-18 23:00:00 18.8 16.5 17.2--- 8713.0wxwxwxwx2wx--21016.4 977.8 -0.6---------
2019-06-18 22:00:00 19.3 16.6 17.4--- 8414.0wxwxwxwxwx3wx---1016.5 977.9 -0.7---------
2019-06-18 21:00:00 19.6 16.5 17.4--- 8213.0wxwxwxwxwx2wx--21016.6 978.1 -0.5---------
2019-06-18 20:00:00 20.0 16.5 17.6--- 8013.0wxwxwxwxwx2wx--21016.9 978.4 -0.2---------
2019-06-18 19:00:00 20.5 16.8 17.9--- 7912.0wxwxwxwxwx2wx--21017.0 978.6 -0.2---------
2019-06-18 18:00:00 21.2 16.9 18.2 23.4 17.7- 7713.0wxwxwxwx2wx--21016.9 978.6 -0.2- 0.012------
2019-06-18 17:00:00 21.9 16.9 18.5--- 7311.0wxwxwx2wx---1016.8 978.6 -0.8---------
2019-06-18 16:00:00 22.6 16.9 18.7--- 7013.0wxwxwxwx2wx--21017.0 978.8 -1.1---------
2019-06-18 15:00:00 22.3 16.2 18.2--- 6814.0wxwxwxwx3wx---1017.0 978.8 -1.6---------
2019-06-18 14:00:00 22.9 16.3 18.5--- 6618.0wxwxwx2wx--21017.5 979.4 -1.3---------
2019-06-18 13:00:00 22.2 15.6 17.8--- 6615.0wxwxwx3wx--31018.2 979.9 -1.0---------
2019-06-18 12:00:00 21.8 15.7 17.7--- 6823.0wxwxwx3wx--31018.7 980.4 -0.7- 0.06------
2019-06-18 11:00:00 21.6 15.8 17.7--- 7035.0wxwxwx3wx--31019.1 980.7 -0.5---------
2019-06-18 10:00:00 21.1 15.1 17.1--- 6930.0wxwxwx3wx--31019.3 980.9 -0.5---------
2019-06-18 09:00:00 20.4 15.5 17.1--- 7430.0wxwxwx3wx--31019.6 981.1 -0.4---------
2019-06-18 08:00:00 19.8 14.7 16.4--- 7230.0wxwxwx3wx--31019.8 981.2 -0.1---------
2019-06-18 07:00:00 18.6 14.6 15.9--- 7840.0wxwxwx2wx---1020.2 981.4 0.3---------
2019-06-18 06:00:00 17.7 14.7 15.6 17.8 15.1 15 8319.0wxwxwx1wx--11020.4 981.5 0.4 2.4 0.012----- 1.4
2019-06-18 05:00:00 15.9 14.4 14.8--- 918.0wxwxwx1wx--11020.5 981.3 0.2---wx---
2019-06-18 04:00:00 15.1 14.0 14.3--- 9310.0wxwxwxwx1wx--11020.4 981.1 -0.1---------
2019-06-18 03:00:00 15.5 13.6 14.2--- 8825.0wxwxwxwx1wx--11020.3 981.1 -0.4---wx---
2019-06-18 02:00:00 15.9 13.5 14.2--- 8640.0wxwxwxwx1wx---1020.3 981.1 -0.6---wx---
2019-06-18 01:00:00 15.5 13.8 14.3--- 9017.0wxwxwx1wx---1020.4 981.2 -0.6---------
2019-06-18 00:00:00 15.4 14.4 14.7--- 9410.0wxwxwx1wx--11020.7 981.5 -0.1- 0.06------
1.9 ms

 

Print Friendly, PDF & Email